sensor_id;sensor_type;location;lat;lon;timestamp;P1;durP1;ratioP1;P2;durP2;ratioP2
9906;SDS011;4992;51.628;6.664;2022-07-31T00:00:04;7.72;;;1.50;;
9906;SDS011;4992;51.628;6.664;2022-07-31T00:02:31;2.15;;;1.17;;
9906;SDS011;4992;51.628;6.664;2022-07-31T00:04:57;2.33;;;1.33;;
9906;SDS011;4992;51.628;6.664;2022-07-31T00:07:23;2.10;;;1.10;;
9906;SDS011;4992;51.628;6.664;2022-07-31T00:09:48;1.83;;;1.20;;
9906;SDS011;4992;51.628;6.664;2022-07-31T00:12:14;1.30;;;1.13;;
9906;SDS011;4992;51.628;6.664;2022-07-31T00:14:40;3.60;;;1.20;;
9906;SDS011;4992;51.628;6.664;2022-07-31T00:17:05;2.45;;;1.25;;
9906;SDS011;4992;51.628;6.664;2022-07-31T00:19:31;3.13;;;1.23;;
9906;SDS011;4992;51.628;6.664;2022-07-31T00:21:56;1.98;;;1.20;;
9906;SDS011;4992;51.628;6.664;2022-07-31T00:24:22;2.75;;;1.25;;
9906;SDS011;4992;51.628;6.664;2022-07-31T00:26:48;3.72;;;1.15;;
9906;SDS011;4992;51.628;6.664;2022-07-31T00:29:14;2.40;;;1.15;;
9906;SDS011;4992;51.628;6.664;2022-07-31T00:31:40;2.10;;;1.05;;
9906;SDS011;4992;51.628;6.664;2022-07-31T00:34:05;1.83;;;1.33;;
9906;SDS011;4992;51.628;6.664;2022-07-31T00:36:31;1.65;;;1.30;;
9906;SDS011;4992;51.628;6.664;2022-07-31T00:38:56;1.88;;;1.33;;
9906;SDS011;4992;51.628;6.664;2022-07-31T00:41:22;1.98;;;1.05;;
9906;SDS011;4992;51.628;6.664;2022-07-31T00:43:48;1.42;;;0.90;;
9906;SDS011;4992;51.628;6.664;2022-07-31T00:46:14;1.20;;;1.10;;
9906;SDS011;4992;51.628;6.664;2022-07-31T00:48:39;2.58;;;1.17;;
9906;SDS011;4992;51.628;6.664;2022-07-31T00:51:05;2.33;;;1.30;;
9906;SDS011;4992;51.628;6.664;2022-07-31T00:53:31;2.78;;;1.17;;
9906;SDS011;4992;51.628;6.664;2022-07-31T00:55:57;2.55;;;1.20;;
9906;SDS011;4992;51.628;6.664;2022-07-31T00:58:23;3.17;;;1.33;;
9906;SDS011;4992;51.628;6.664;2022-07-31T01:00:49;1.15;;;1.08;;
9906;SDS011;4992;51.628;6.664;2022-07-31T01:03:14;1.40;;;1.30;;
9906;SDS011;4992;51.628;6.664;2022-07-31T01:05:43;1.60;;;1.20;;
9906;SDS011;4992;51.628;6.664;2022-07-31T01:08:09;2.15;;;1.55;;
9906;SDS011;4992;51.628;6.664;2022-07-31T01:10:42;2.95;;;1.13;;
9906;SDS011;4992;51.628;6.664;2022-07-31T01:13:09;7.10;;;1.52;;
9906;SDS011;4992;51.628;6.664;2022-07-31T01:15:40;2.90;;;1.30;;
9906;SDS011;4992;51.628;6.664;2022-07-31T01:18:06;2.03;;;1.42;;
9906;SDS011;4992;51.628;6.664;2022-07-31T01:20:33;2.22;;;1.35;;
9906;SDS011;4992;51.628;6.664;2022-07-31T01:25:56;1.88;;;1.35;;
9906;SDS011;4992;51.628;6.664;2022-07-31T01:31:35;2.17;;;1.40;;
9906;SDS011;4992;51.628;6.664;2022-07-31T01:37:01;2.10;;;1.52;;
9906;SDS011;4992;51.628;6.664;2022-07-31T01:39:32;1.70;;;1.48;;
9906;SDS011;4992;51.628;6.664;2022-07-31T01:42:01;1.98;;;1.48;;
9906;SDS011;4992;51.628;6.664;2022-07-31T01:44:30;1.40;;;1.30;;
9906;SDS011;4992;51.628;6.664;2022-07-31T01:47:00;1.70;;;1.60;;
9906;SDS011;4992;51.628;6.664;2022-07-31T01:49:27;2.40;;;1.33;;
9906;SDS011;4992;51.628;6.664;2022-07-31T01:51:55;3.60;;;1.45;;
9906;SDS011;4992;51.628;6.664;2022-07-31T01:54:22;1.52;;;1.30;;
9906;SDS011;4992;51.628;6.664;2022-07-31T01:56:49;1.65;;;1.55;;
9906;SDS011;4992;51.628;6.664;2022-07-31T01:59:16;1.90;;;1.70;;
9906;SDS011;4992;51.628;6.664;2022-07-31T02:01:43;1.50;;;1.40;;
9906;SDS011;4992;51.628;6.664;2022-07-31T02:04:12;1.90;;;1.58;;
9906;SDS011;4992;51.628;6.664;2022-07-31T02:06:39;1.90;;;1.70;;
9906;SDS011;4992;51.628;6.664;2022-07-31T02:09:05;4.22;;;1.63;;
9906;SDS011;4992;51.628;6.664;2022-07-31T02:11:31;1.60;;;1.15;;
9906;SDS011;4992;51.628;6.664;2022-07-31T02:13:57;2.53;;;1.63;;
9906;SDS011;4992;51.628;6.664;2022-07-31T02:16:24;1.75;;;1.63;;
9906;SDS011;4992;51.628;6.664;2022-07-31T02:18:51;2.78;;;1.60;;
9906;SDS011;4992;51.628;6.664;2022-07-31T02:21:19;2.08;;;1.70;;
9906;SDS011;4992;51.628;6.664;2022-07-31T02:23:45;1.85;;;1.60;;
9906;SDS011;4992;51.628;6.664;2022-07-31T02:26:10;2.80;;;1.67;;
9906;SDS011;4992;51.628;6.664;2022-07-31T02:28:37;3.33;;;1.92;;
9906;SDS011;4992;51.628;6.664;2022-07-31T02:31:06;3.00;;;1.50;;
9906;SDS011;4992;51.628;6.664;2022-07-31T02:33:35;2.45;;;1.63;;
9906;SDS011;4992;51.628;6.664;2022-07-31T02:36:02;2.85;;;1.58;;
9906;SDS011;4992;51.628;6.664;2022-07-31T02:38:28;3.25;;;1.70;;
9906;SDS011;4992;51.628;6.664;2022-07-31T02:40:58;2.45;;;1.50;;
9906;SDS011;4992;51.628;6.664;2022-07-31T02:43:26;2.20;;;1.90;;
9906;SDS011;4992;51.628;6.664;2022-07-31T02:45:53;2.75;;;1.40;;
9906;SDS011;4992;51.628;6.664;2022-07-31T02:48:20;2.38;;;1.58;;
9906;SDS011;4992;51.628;6.664;2022-07-31T02:50:46;2.15;;;1.40;;
9906;SDS011;4992;51.628;6.664;2022-07-31T02:53:13;3.47;;;1.58;;
9906;SDS011;4992;51.628;6.664;2022-07-31T02:55:39;1.95;;;1.83;;
9906;SDS011;4992;51.628;6.664;2022-07-31T02:58:07;4.45;;;2.03;;
9906;SDS011;4992;51.628;6.664;2022-07-31T03:00:32;2.05;;;1.80;;
9906;SDS011;4992;51.628;6.664;2022-07-31T03:02:58;2.28;;;1.90;;
9906;SDS011;4992;51.628;6.664;2022-07-31T03:05:24;2.10;;;1.63;;
9906;SDS011;4992;51.628;6.664;2022-07-31T03:07:49;2.03;;;1.60;;
9906;SDS011;4992;51.628;6.664;2022-07-31T03:10:15;2.65;;;1.65;;
9906;SDS011;4992;51.628;6.664;2022-07-31T03:12:41;1.80;;;1.42;;
9906;SDS011;4992;51.628;6.664;2022-07-31T03:15:13;2.22;;;1.50;;
9906;SDS011;4992;51.628;6.664;2022-07-31T03:17:40;2.20;;;1.83;;
9906;SDS011;4992;51.628;6.664;2022-07-31T03:20:07;2.35;;;1.88;;
9906;SDS011;4992;51.628;6.664;2022-07-31T03:22:33;1.73;;;1.63;;
9906;SDS011;4992;51.628;6.664;2022-07-31T03:25:00;2.03;;;1.90;;
9906;SDS011;4992;51.628;6.664;2022-07-31T03:27:26;3.03;;;1.92;;
9906;SDS011;4992;51.628;6.664;2022-07-31T03:29:52;3.28;;;1.55;;
9906;SDS011;4992;51.628;6.664;2022-07-31T03:32:18;2.88;;;1.70;;
9906;SDS011;4992;51.628;6.664;2022-07-31T03:34:44;2.45;;;2.10;;
9906;SDS011;4992;51.628;6.664;2022-07-31T03:37:10;1.90;;;1.80;;
9906;SDS011;4992;51.628;6.664;2022-07-31T03:39:35;2.13;;;1.73;;
9906;SDS011;4992;51.628;6.664;2022-07-31T03:42:01;2.15;;;1.58;;
9906;SDS011;4992;51.628;6.664;2022-07-31T03:44:27;1.95;;;1.75;;
9906;SDS011;4992;51.628;6.664;2022-07-31T03:46:55;2.53;;;2.30;;
9906;SDS011;4992;51.628;6.664;2022-07-31T03:49:20;2.75;;;1.95;;
9906;SDS011;4992;51.628;6.664;2022-07-31T03:51:47;1.95;;;1.80;;
9906;SDS011;4992;51.628;6.664;2022-07-31T03:54:13;1.88;;;1.65;;
9906;SDS011;4992;51.628;6.664;2022-07-31T03:56:38;4.47;;;2.08;;
9906;SDS011;4992;51.628;6.664;2022-07-31T03:59:07;1.70;;;1.60;;
9906;SDS011;4992;51.628;6.664;2022-07-31T04:01:33;3.20;;;1.88;;
9906;SDS011;4992;51.628;6.664;2022-07-31T04:03:58;2.00;;;1.70;;
9906;SDS011;4992;51.628;6.664;2022-07-31T04:06:24;2.40;;;1.88;;
9906;SDS011;4992;51.628;6.664;2022-07-31T04:08:50;2.17;;;1.95;;
9906;SDS011;4992;51.628;6.664;2022-07-31T04:11:15;1.73;;;1.63;;
9906;SDS011;4992;51.628;6.664;2022-07-31T04:13:41;3.58;;;1.98;;
9906;SDS011;4992;51.628;6.664;2022-07-31T04:16:07;3.42;;;1.90;;
9906;SDS011;4992;51.628;6.664;2022-07-31T04:18:32;4.60;;;2.22;;
9906;SDS011;4992;51.628;6.664;2022-07-31T04:20:58;3.50;;;2.75;;
9906;SDS011;4992;51.628;6.664;2022-07-31T04:23:24;3.47;;;2.33;;
9906;SDS011;4992;51.628;6.664;2022-07-31T04:25:50;7.82;;;2.83;;
9906;SDS011;4992;51.628;6.664;2022-07-31T04:28:15;6.50;;;3.22;;
9906;SDS011;4992;51.628;6.664;2022-07-31T04:30:41;5.68;;;3.17;;
9906;SDS011;4992;51.628;6.664;2022-07-31T04:33:07;6.25;;;2.97;;
9906;SDS011;4992;51.628;6.664;2022-07-31T04:35:33;4.40;;;2.45;;
9906;SDS011;4992;51.628;6.664;2022-07-31T04:37:58;5.30;;;2.80;;
9906;SDS011;4992;51.628;6.664;2022-07-31T04:40:24;5.45;;;3.00;;
9906;SDS011;4992;51.628;6.664;2022-07-31T04:42:51;4.32;;;3.17;;
9906;SDS011;4992;51.628;6.664;2022-07-31T04:45:17;3.30;;;3.00;;
9906;SDS011;4992;51.628;6.664;2022-07-31T04:47:42;4.32;;;3.10;;
9906;SDS011;4992;51.628;6.664;2022-07-31T04:50:08;3.83;;;3.42;;
9906;SDS011;4992;51.628;6.664;2022-07-31T04:52:34;4.18;;;3.53;;
9906;SDS011;4992;51.628;6.664;2022-07-31T04:54:59;5.95;;;3.58;;
9906;SDS011;4992;51.628;6.664;2022-07-31T04:57:25;7.18;;;3.58;;
9906;SDS011;4992;51.628;6.664;2022-07-31T04:59:50;4.78;;;4.03;;
9906;SDS011;4992;51.628;6.664;2022-07-31T05:02:16;3.90;;;3.60;;
9906;SDS011;4992;51.628;6.664;2022-07-31T05:04:41;7.43;;;3.72;;
9906;SDS011;4992;51.628;6.664;2022-07-31T05:07:07;4.55;;;3.95;;
9906;SDS011;4992;51.628;6.664;2022-07-31T05:09:32;5.90;;;3.85;;
9906;SDS011;4992;51.628;6.664;2022-07-31T05:11:59;6.75;;;4.32;;
9906;SDS011;4992;51.628;6.664;2022-07-31T05:14:25;5.07;;;4.57;;
9906;SDS011;4992;51.628;6.664;2022-07-31T05:16:51;7.50;;;4.80;;
9906;SDS011;4992;51.628;6.664;2022-07-31T05:19:17;6.88;;;4.20;;
9906;SDS011;4992;51.628;6.664;2022-07-31T05:21:43;8.02;;;4.40;;
9906;SDS011;4992;51.628;6.664;2022-07-31T05:24:10;6.13;;;5.18;;
9906;SDS011;4992;51.628;6.664;2022-07-31T05:26:35;6.13;;;4.60;;
9906;SDS011;4992;51.628;6.664;2022-07-31T05:29:03;16.42;;;4.85;;
9906;SDS011;4992;51.628;6.664;2022-07-31T05:31:28;6.85;;;4.93;;
9906;SDS011;4992;51.628;6.664;2022-07-31T05:33:54;6.25;;;5.07;;
9906;SDS011;4992;51.628;6.664;2022-07-31T05:36:21;9.23;;;5.72;;
9906;SDS011;4992;51.628;6.664;2022-07-31T05:38:47;8.50;;;5.68;;
9906;SDS011;4992;51.628;6.664;2022-07-31T05:41:13;7.07;;;5.18;;
9906;SDS011;4992;51.628;6.664;2022-07-31T05:43:38;5.57;;;5.07;;
9906;SDS011;4992;51.628;6.664;2022-07-31T05:46:04;6.35;;;5.55;;
9906;SDS011;4992;51.628;6.664;2022-07-31T05:48:30;6.47;;;5.50;;
9906;SDS011;4992;51.628;6.664;2022-07-31T05:50:56;6.20;;;5.60;;
9906;SDS011;4992;51.628;6.664;2022-07-31T05:53:21;5.57;;;5.10;;
9906;SDS011;4992;51.628;6.664;2022-07-31T05:55:47;8.57;;;6.03;;
9906;SDS011;4992;51.628;6.664;2022-07-31T05:58:14;5.57;;;5.07;;
9906;SDS011;4992;51.628;6.664;2022-07-31T06:00:41;6.53;;;5.88;;
9906;SDS011;4992;51.628;6.664;2022-07-31T06:03:08;6.20;;;5.40;;
9906;SDS011;4992;51.628;6.664;2022-07-31T06:05:34;7.22;;;5.57;;
9906;SDS011;4992;51.628;6.664;2022-07-31T06:08:00;9.05;;;6.60;;
9906;SDS011;4992;51.628;6.664;2022-07-31T06:10:26;9.77;;;6.13;;
9906;SDS011;4992;51.628;6.664;2022-07-31T06:12:52;9.70;;;6.22;;
9906;SDS011;4992;51.628;6.664;2022-07-31T06:15:18;8.07;;;6.07;;
9906;SDS011;4992;51.628;6.664;2022-07-31T06:17:44;6.45;;;5.47;;
9906;SDS011;4992;51.628;6.664;2022-07-31T06:20:10;8.52;;;6.13;;
9906;SDS011;4992;51.628;6.664;2022-07-31T06:22:37;8.85;;;5.80;;
9906;SDS011;4992;51.628;6.664;2022-07-31T06:25:03;9.63;;;6.47;;
9906;SDS011;4992;51.628;6.664;2022-07-31T06:27:30;8.48;;;6.13;;
9906;SDS011;4992;51.628;6.664;2022-07-31T06:29:56;10.73;;;6.15;;
9906;SDS011;4992;51.628;6.664;2022-07-31T06:32:22;7.43;;;6.57;;
9906;SDS011;4992;51.628;6.664;2022-07-31T06:34:48;6.57;;;5.97;;
9906;SDS011;4992;51.628;6.664;2022-07-31T06:37:13;8.65;;;5.90;;
9906;SDS011;4992;51.628;6.664;2022-07-31T06:39:39;6.78;;;6.18;;
9906;SDS011;4992;51.628;6.664;2022-07-31T06:42:04;10.05;;;7.25;;
9906;SDS011;4992;51.628;6.664;2022-07-31T06:44:30;8.73;;;6.40;;
9906;SDS011;4992;51.628;6.664;2022-07-31T06:46:57;6.93;;;5.93;;
9906;SDS011;4992;51.628;6.664;2022-07-31T06:49:23;7.10;;;6.32;;
9906;SDS011;4992;51.628;6.664;2022-07-31T06:51:50;8.30;;;6.45;;
9906;SDS011;4992;51.628;6.664;2022-07-31T06:54:16;9.43;;;5.90;;
9906;SDS011;4992;51.628;6.664;2022-07-31T06:56:41;8.13;;;6.22;;
9906;SDS011;4992;51.628;6.664;2022-07-31T06:59:07;6.55;;;5.80;;
9906;SDS011;4992;51.628;6.664;2022-07-31T07:01:32;6.30;;;4.80;;
9906;SDS011;4992;51.628;6.664;2022-07-31T07:03:58;6.13;;;4.93;;
9906;SDS011;4992;51.628;6.664;2022-07-31T07:06:24;5.32;;;4.10;;
9906;SDS011;4992;51.628;6.664;2022-07-31T07:08:50;7.78;;;5.60;;
9906;SDS011;4992;51.628;6.664;2022-07-31T07:11:17;5.18;;;4.65;;
9906;SDS011;4992;51.628;6.664;2022-07-31T07:13:43;4.75;;;4.30;;
9906;SDS011;4992;51.628;6.664;2022-07-31T07:16:09;4.93;;;4.57;;
9906;SDS011;4992;51.628;6.664;2022-07-31T07:18:34;7.47;;;4.07;;
9906;SDS011;4992;51.628;6.664;2022-07-31T07:21:00;5.38;;;4.85;;
9906;SDS011;4992;51.628;6.664;2022-07-31T07:23:26;6.53;;;4.40;;
9906;SDS011;4992;51.628;6.664;2022-07-31T07:25:51;7.03;;;3.97;;
9906;SDS011;4992;51.628;6.664;2022-07-31T07:28:17;4.63;;;3.90;;
9906;SDS011;4992;51.628;6.664;2022-07-31T07:30:43;6.65;;;3.75;;
9906;SDS011;4992;51.628;6.664;2022-07-31T07:33:08;6.45;;;4.00;;
9906;SDS011;4992;51.628;6.664;2022-07-31T07:35:34;3.75;;;3.45;;
9906;SDS011;4992;51.628;6.664;2022-07-31T07:38:01;4.57;;;3.22;;
9906;SDS011;4992;51.628;6.664;2022-07-31T07:40:27;3.83;;;3.40;;
9906;SDS011;4992;51.628;6.664;2022-07-31T07:42:52;5.75;;;3.47;;
9906;SDS011;4992;51.628;6.664;2022-07-31T07:45:18;5.50;;;3.90;;
9906;SDS011;4992;51.628;6.664;2022-07-31T07:47:43;3.85;;;3.28;;
9906;SDS011;4992;51.628;6.664;2022-07-31T07:50:09;5.13;;;3.85;;
9906;SDS011;4992;51.628;6.664;2022-07-31T07:52:35;5.38;;;3.97;;
9906;SDS011;4992;51.628;6.664;2022-07-31T07:55:01;4.07;;;3.45;;
9906;SDS011;4992;51.628;6.664;2022-07-31T07:57:28;4.05;;;3.63;;
9906;SDS011;4992;51.628;6.664;2022-07-31T07:59:54;3.65;;;3.35;;
9906;SDS011;4992;51.628;6.664;2022-07-31T08:02:23;7.60;;;3.75;;
9906;SDS011;4992;51.628;6.664;2022-07-31T08:04:48;6.72;;;4.68;;
9906;SDS011;4992;51.628;6.664;2022-07-31T08:07:14;4.15;;;3.78;;
9906;SDS011;4992;51.628;6.664;2022-07-31T08:09:39;3.90;;;3.50;;
9906;SDS011;4992;51.628;6.664;2022-07-31T08:12:05;6.05;;;4.22;;
9906;SDS011;4992;51.628;6.664;2022-07-31T08:14:31;4.25;;;3.90;;
9906;SDS011;4992;51.628;6.664;2022-07-31T08:16:56;6.65;;;4.70;;
9906;SDS011;4992;51.628;6.664;2022-07-31T08:19:22;4.90;;;4.35;;
9906;SDS011;4992;51.628;6.664;2022-07-31T08:21:47;4.63;;;3.53;;
9906;SDS011;4992;51.628;6.664;2022-07-31T08:24:13;4.25;;;3.85;;
9906;SDS011;4992;51.628;6.664;2022-07-31T08:26:42;4.63;;;4.10;;
9906;SDS011;4992;51.628;6.664;2022-07-31T08:29:27;4.70;;;4.28;;
9906;SDS011;4992;51.628;6.664;2022-07-31T08:31:52;5.18;;;4.10;;
9906;SDS011;4992;51.628;6.664;2022-07-31T08:34:18;4.43;;;4.03;;
9906;SDS011;4992;51.628;6.664;2022-07-31T08:36:44;7.25;;;3.95;;
9906;SDS011;4992;51.628;6.664;2022-07-31T08:39:09;4.68;;;3.55;;
9906;SDS011;4992;51.628;6.664;2022-07-31T08:41:38;5.03;;;3.47;;
9906;SDS011;4992;51.628;6.664;2022-07-31T08:44:05;4.45;;;3.70;;
9906;SDS011;4992;51.628;6.664;2022-07-31T08:46:31;4.35;;;3.47;;
9906;SDS011;4992;51.628;6.664;2022-07-31T08:49:00;4.60;;;4.18;;
9906;SDS011;4992;51.628;6.664;2022-07-31T08:51:27;4.35;;;3.10;;
9906;SDS011;4992;51.628;6.664;2022-07-31T08:53:55;4.65;;;3.72;;
9906;SDS011;4992;51.628;6.664;2022-07-31T08:56:23;3.95;;;3.03;;
9906;SDS011;4992;51.628;6.664;2022-07-31T08:58:49;3.63;;;3.33;;
9906;SDS011;4992;51.628;6.664;2022-07-31T09:01:15;4.25;;;3.30;;
9906;SDS011;4992;51.628;6.664;2022-07-31T09:03:42;4.70;;;3.90;;
9906;SDS011;4992;51.628;6.664;2022-07-31T09:06:08;4.22;;;3.67;;
9906;SDS011;4992;51.628;6.664;2022-07-31T09:08:34;4.40;;;3.65;;
9906;SDS011;4992;51.628;6.664;2022-07-31T09:11:08;4.72;;;3.80;;
9906;SDS011;4992;51.628;6.664;2022-07-31T09:13:35;4.88;;;4.38;;
9906;SDS011;4992;51.628;6.664;2022-07-31T09:16:02;4.28;;;3.92;;
9906;SDS011;4992;51.628;6.664;2022-07-31T09:18:28;4.03;;;3.55;;
9906;SDS011;4992;51.628;6.664;2022-07-31T09:20:55;4.70;;;3.95;;
9906;SDS011;4992;51.628;6.664;2022-07-31T09:23:23;3.75;;;3.45;;
9906;SDS011;4992;51.628;6.664;2022-07-31T09:26:00;3.75;;;3.45;;
9906;SDS011;4992;51.628;6.664;2022-07-31T09:28:30;4.45;;;3.60;;
9906;SDS011;4992;51.628;6.664;2022-07-31T09:31:22;3.63;;;3.33;;
9906;SDS011;4992;51.628;6.664;2022-07-31T09:33:56;3.70;;;3.00;;
9906;SDS011;4992;51.628;6.664;2022-07-31T09:36:22;3.78;;;2.80;;
9906;SDS011;4992;51.628;6.664;2022-07-31T09:38:48;3.75;;;3.38;;
9906;SDS011;4992;51.628;6.664;2022-07-31T09:41:15;2.90;;;2.55;;
9906;SDS011;4992;51.628;6.664;2022-07-31T09:43:43;2.40;;;2.20;;
9906;SDS011;4992;51.628;6.664;2022-07-31T09:46:17;3.28;;;2.25;;
9906;SDS011;4992;51.628;6.664;2022-07-31T09:48:48;2.95;;;2.00;;
9906;SDS011;4992;51.628;6.664;2022-07-31T09:51:15;5.50;;;2.35;;
9906;SDS011;4992;51.628;6.664;2022-07-31T09:53:44;3.38;;;2.13;;
9906;SDS011;4992;51.628;6.664;2022-07-31T09:56:11;4.82;;;2.05;;
9906;SDS011;4992;51.628;6.664;2022-07-31T09:58:37;2.15;;;1.95;;
9906;SDS011;4992;51.628;6.664;2022-07-31T10:01:04;2.72;;;2.08;;
9906;SDS011;4992;51.628;6.664;2022-07-31T10:03:32;2.33;;;1.88;;
9906;SDS011;4992;51.628;6.664;2022-07-31T10:06:00;3.17;;;2.40;;
9906;SDS011;4992;51.628;6.664;2022-07-31T10:08:26;3.05;;;2.22;;
9906;SDS011;4992;51.628;6.664;2022-07-31T10:10:53;2.65;;;1.98;;
9906;SDS011;4992;51.628;6.664;2022-07-31T10:13:19;2.45;;;2.05;;
9906;SDS011;4992;51.628;6.664;2022-07-31T10:15:47;2.67;;;1.50;;
9906;SDS011;4992;51.628;6.664;2022-07-31T10:18:15;4.95;;;1.80;;
9906;SDS011;4992;51.628;6.664;2022-07-31T10:20:41;1.75;;;1.65;;
9906;SDS011;4992;51.628;6.664;2022-07-31T10:23:16;2.60;;;1.60;;
9906;SDS011;4992;51.628;6.664;2022-07-31T10:25:50;1.85;;;1.75;;
9906;SDS011;4992;51.628;6.664;2022-07-31T10:28:20;3.25;;;1.45;;
9906;SDS011;4992;51.628;6.664;2022-07-31T10:30:47;1.80;;;1.70;;
9906;SDS011;4992;51.628;6.664;2022-07-31T10:33:13;2.65;;;2.00;;
9906;SDS011;4992;51.628;6.664;2022-07-31T10:35:47;3.40;;;2.13;;
9906;SDS011;4992;51.628;6.664;2022-07-31T10:46:56;1.77;;;1.60;;
9906;SDS011;4992;51.628;6.664;2022-07-31T10:49:41;1.80;;;1.70;;
9906;SDS011;4992;51.628;6.664;2022-07-31T10:52:08;2.17;;;1.90;;
9906;SDS011;4992;51.628;6.664;2022-07-31T10:54:37;2.20;;;1.60;;
9906;SDS011;4992;51.628;6.664;2022-07-31T10:57:07;3.42;;;2.00;;
9906;SDS011;4992;51.628;6.664;2022-07-31T10:59:33;3.45;;;2.72;;
9906;SDS011;4992;51.628;6.664;2022-07-31T11:01:59;4.38;;;2.45;;
9906;SDS011;4992;51.628;6.664;2022-07-31T11:04:28;4.47;;;2.72;;
9906;SDS011;4992;51.628;6.664;2022-07-31T11:06:58;3.47;;;2.92;;
9906;SDS011;4992;51.628;6.664;2022-07-31T11:09:25;2.97;;;2.78;;
9906;SDS011;4992;51.628;6.664;2022-07-31T11:11:52;2.85;;;2.65;;
9906;SDS011;4992;51.628;6.664;2022-07-31T11:14:29;3.05;;;2.83;;
9906;SDS011;4992;51.628;6.664;2022-07-31T11:17:04;2.50;;;2.30;;
9906;SDS011;4992;51.628;6.664;2022-07-31T11:19:37;4.15;;;2.42;;
9906;SDS011;4992;51.628;6.664;2022-07-31T11:22:10;2.65;;;2.33;;
9906;SDS011;4992;51.628;6.664;2022-07-31T11:24:41;3.90;;;2.33;;
9906;SDS011;4992;51.628;6.664;2022-07-31T11:27:17;3.45;;;2.20;;
9906;SDS011;4992;51.628;6.664;2022-07-31T11:30:01;3.67;;;1.80;;
9906;SDS011;4992;51.628;6.664;2022-07-31T11:32:31;3.00;;;2.05;;
9906;SDS011;4992;51.628;6.664;2022-07-31T11:34:56;2.10;;;1.92;;
9906;SDS011;4992;51.628;6.664;2022-07-31T11:37:23;4.85;;;3.63;;
9906;SDS011;4992;51.628;6.664;2022-07-31T11:39:52;4.10;;;3.80;;
9906;SDS011;4992;51.628;6.664;2022-07-31T11:42:20;2.15;;;1.90;;
9906;SDS011;4992;51.628;6.664;2022-07-31T11:44:46;2.40;;;1.77;;
9906;SDS011;4992;51.628;6.664;2022-07-31T11:47:12;2.05;;;1.25;;
9906;SDS011;4992;51.628;6.664;2022-07-31T11:49:38;2.53;;;2.15;;
9906;SDS011;4992;51.628;6.664;2022-07-31T11:52:07;1.60;;;1.50;;
9906;SDS011;4992;51.628;6.664;2022-07-31T11:54:36;1.50;;;1.40;;
9906;SDS011;4992;51.628;6.664;2022-07-31T11:57:03;1.60;;;1.50;;
9906;SDS011;4992;51.628;6.664;2022-07-31T12:02:08;1.58;;;1.48;;
9906;SDS011;4992;51.628;6.664;2022-07-31T12:04:38;4.53;;;2.42;;
9906;SDS011;4992;51.628;6.664;2022-07-31T12:07:08;2.35;;;1.73;;
9906;SDS011;4992;51.628;6.664;2022-07-31T12:09:34;1.40;;;1.25;;
9906;SDS011;4992;51.628;6.664;2022-07-31T12:12:01;2.30;;;1.20;;
9906;SDS011;4992;51.628;6.664;2022-07-31T12:14:28;1.95;;;1.45;;
9906;SDS011;4992;51.628;6.664;2022-07-31T12:17:03;2.63;;;1.45;;
9906;SDS011;4992;51.628;6.664;2022-07-31T12:19:31;2.13;;;1.85;;
9906;SDS011;4992;51.628;6.664;2022-07-31T12:21:58;2.08;;;1.85;;
9906;SDS011;4992;51.628;6.664;2022-07-31T12:24:24;3.03;;;1.40;;
9906;SDS011;4992;51.628;6.664;2022-07-31T12:26:54;1.48;;;1.38;;
9906;SDS011;4992;51.628;6.664;2022-07-31T12:29:33;4.35;;;1.90;;
9906;SDS011;4992;51.628;6.664;2022-07-31T12:32:00;1.73;;;1.50;;
9906;SDS011;4992;51.628;6.664;2022-07-31T12:34:26;1.63;;;1.52;;
9906;SDS011;4992;51.628;6.664;2022-07-31T12:37:06;1.27;;;1.10;;
9906;SDS011;4992;51.628;6.664;2022-07-31T12:39:34;1.50;;;1.40;;
9906;SDS011;4992;51.628;6.664;2022-07-31T12:42:01;2.58;;;1.90;;
9906;SDS011;4992;51.628;6.664;2022-07-31T12:44:27;2.10;;;1.27;;
9906;SDS011;4992;51.628;6.664;2022-07-31T12:46:53;2.92;;;1.60;;
9906;SDS011;4992;51.628;6.664;2022-07-31T12:49:19;3.83;;;1.90;;
9906;SDS011;4992;51.628;6.664;2022-07-31T12:51:45;1.63;;;1.52;;
9906;SDS011;4992;51.628;6.664;2022-07-31T12:54:10;3.03;;;1.88;;
9906;SDS011;4992;51.628;6.664;2022-07-31T12:56:37;1.73;;;1.63;;
9906;SDS011;4992;51.628;6.664;2022-07-31T12:59:03;3.08;;;2.13;;
9906;SDS011;4992;51.628;6.664;2022-07-31T13:01:30;1.70;;;1.60;;
9906;SDS011;4992;51.628;6.664;2022-07-31T13:03:56;1.75;;;1.45;;
9906;SDS011;4992;51.628;6.664;2022-07-31T13:06:22;2.75;;;1.70;;
9906;SDS011;4992;51.628;6.664;2022-07-31T13:08:48;1.45;;;1.35;;
9906;SDS011;4992;51.628;6.664;2022-07-31T13:11:14;2.08;;;1.58;;
9906;SDS011;4992;51.628;6.664;2022-07-31T13:13:39;2.25;;;1.77;;
9906;SDS011;4992;51.628;6.664;2022-07-31T13:16:05;1.92;;;1.60;;
9906;SDS011;4992;51.628;6.664;2022-07-31T13:18:31;1.42;;;1.33;;
9906;SDS011;4992;51.628;6.664;2022-07-31T13:20:57;3.42;;;1.50;;
9906;SDS011;4992;51.628;6.664;2022-07-31T13:23:24;2.42;;;1.77;;
9906;SDS011;4992;51.628;6.664;2022-07-31T13:25:50;1.98;;;1.80;;
9906;SDS011;4992;51.628;6.664;2022-07-31T13:28:16;1.85;;;1.50;;
9906;SDS011;4992;51.628;6.664;2022-07-31T13:30:41;1.45;;;1.35;;
9906;SDS011;4992;51.628;6.664;2022-07-31T13:33:07;2.25;;;1.63;;
9906;SDS011;4992;51.628;6.664;2022-07-31T13:35:32;2.63;;;1.50;;
9906;SDS011;4992;51.628;6.664;2022-07-31T13:37:58;1.83;;;1.67;;
9906;SDS011;4992;51.628;6.664;2022-07-31T13:40:24;5.22;;;4.78;;
9906;SDS011;4992;51.628;6.664;2022-07-31T13:43:08;2.28;;;1.73;;
9906;SDS011;4992;51.628;6.664;2022-07-31T13:45:35;2.60;;;1.65;;
9906;SDS011;4992;51.628;6.664;2022-07-31T13:48:01;1.90;;;1.40;;
9906;SDS011;4992;51.628;6.664;2022-07-31T13:50:26;2.80;;;1.55;;
9906;SDS011;4992;51.628;6.664;2022-07-31T13:52:52;2.97;;;1.73;;
9906;SDS011;4992;51.628;6.664;2022-07-31T13:55:18;1.80;;;1.70;;
9906;SDS011;4992;51.628;6.664;2022-07-31T13:57:43;1.55;;;1.45;;
9906;SDS011;4992;51.628;6.664;2022-07-31T14:00:09;4.55;;;1.88;;
9906;SDS011;4992;51.628;6.664;2022-07-31T14:02:35;1.75;;;1.63;;
9906;SDS011;4992;51.628;6.664;2022-07-31T14:05:00;2.00;;;1.90;;
9906;SDS011;4992;51.628;6.664;2022-07-31T14:07:26;2.05;;;1.92;;
9906;SDS011;4992;51.628;6.664;2022-07-31T14:09:52;2.78;;;2.08;;
9906;SDS011;4992;51.628;6.664;2022-07-31T14:12:17;2.75;;;2.08;;
9906;SDS011;4992;51.628;6.664;2022-07-31T14:14:43;2.60;;;2.35;;
9906;SDS011;4992;51.628;6.664;2022-07-31T14:17:08;2.67;;;2.13;;
9906;SDS011;4992;51.628;6.664;2022-07-31T14:19:34;2.25;;;1.88;;
9906;SDS011;4992;51.628;6.664;2022-07-31T14:21:59;3.17;;;1.85;;
9906;SDS011;4992;51.628;6.664;2022-07-31T14:24:25;2.83;;;2.05;;
9906;SDS011;4992;51.628;6.664;2022-07-31T14:26:50;1.77;;;1.38;;
9906;SDS011;4992;51.628;6.664;2022-07-31T14:29:16;1.65;;;1.55;;
9906;SDS011;4992;51.628;6.664;2022-07-31T14:31:42;2.92;;;1.50;;
9906;SDS011;4992;51.628;6.664;2022-07-31T14:34:07;1.90;;;1.80;;
9906;SDS011;4992;51.628;6.664;2022-07-31T14:36:33;3.20;;;1.85;;
9906;SDS011;4992;51.628;6.664;2022-07-31T14:38:58;1.85;;;1.60;;
9906;SDS011;4992;51.628;6.664;2022-07-31T14:41:24;1.55;;;1.45;;
9906;SDS011;4992;51.628;6.664;2022-07-31T14:43:49;2.65;;;1.95;;
9906;SDS011;4992;51.628;6.664;2022-07-31T14:46:15;1.85;;;1.60;;
9906;SDS011;4992;51.628;6.664;2022-07-31T14:48:40;3.55;;;1.60;;
9906;SDS011;4992;51.628;6.664;2022-07-31T14:51:06;2.05;;;1.40;;
9906;SDS011;4992;51.628;6.664;2022-07-31T14:53:31;1.65;;;1.55;;
9906;SDS011;4992;51.628;6.664;2022-07-31T14:55:57;2.60;;;1.70;;
9906;SDS011;4992;51.628;6.664;2022-07-31T14:58:22;1.70;;;1.30;;
9906;SDS011;4992;51.628;6.664;2022-07-31T15:00:49;1.50;;;1.40;;
9906;SDS011;4992;51.628;6.664;2022-07-31T15:03:15;1.77;;;1.67;;
9906;SDS011;4992;51.628;6.664;2022-07-31T15:05:41;2.13;;;1.58;;
9906;SDS011;4992;51.628;6.664;2022-07-31T15:08:06;1.73;;;1.40;;
9906;SDS011;4992;51.628;6.664;2022-07-31T15:10:32;2.85;;;1.70;;
9906;SDS011;4992;51.628;6.664;2022-07-31T15:12:57;2.05;;;1.50;;
9906;SDS011;4992;51.628;6.664;2022-07-31T15:15:23;2.97;;;1.60;;
9906;SDS011;4992;51.628;6.664;2022-07-31T15:17:48;3.00;;;1.80;;
9906;SDS011;4992;51.628;6.664;2022-07-31T15:20:14;2.30;;;1.92;;
9906;SDS011;4992;51.628;6.664;2022-07-31T15:22:39;2.75;;;1.73;;
9906;SDS011;4992;51.628;6.664;2022-07-31T15:25:05;2.53;;;1.83;;
9906;SDS011;4992;51.628;6.664;2022-07-31T15:27:31;1.80;;;1.70;;
9906;SDS011;4992;51.628;6.664;2022-07-31T15:29:56;2.38;;;1.95;;
9906;SDS011;4992;51.628;6.664;2022-07-31T15:32:22;7.75;;;7.15;;